sensor_id;sensor_type;location;lat;lon;timestamp;temperature;humidity
18948;DHT22;9607;51.600;7.558;2024-03-23T00:56:04;6.70;99.90
18948;DHT22;9607;51.600;7.558;2024-03-23T00:58:30;6.70;99.90
18948;DHT22;9607;51.600;7.558;2024-03-23T01:00:58;6.70;99.90
18948;DHT22;9607;51.600;7.558;2024-03-23T01:03:24;6.70;99.90
18948;DHT22;9607;51.600;7.558;2024-03-23T01:05:51;6.60;99.90
18948;DHT22;9607;51.600;7.558;2024-03-23T01:08:18;6.60;99.90
18948;DHT22;9607;51.600;7.558;2024-03-23T01:10:55;6.50;99.90
18948;DHT22;9607;51.600;7.558;2024-03-23T01:13:21;6.50;99.90
18948;DHT22;9607;51.600;7.558;2024-03-23T01:15:48;6.50;99.90
18948;DHT22;9607;51.600;7.558;2024-03-23T01:18:14;6.40;99.90
18948;DHT22;9607;51.600;7.558;2024-03-23T01:20:41;6.40;99.90
18948;DHT22;9607;51.600;7.558;2024-03-23T01:23:07;6.40;99.90
18948;DHT22;9607;51.600;7.558;2024-03-23T01:25:34;6.40;99.90
18948;DHT22;9607;51.600;7.558;2024-03-23T01:28:01;6.40;99.90
18948;DHT22;9607;51.600;7.558;2024-03-23T01:30:28;6.50;99.90
18948;DHT22;9607;51.600;7.558;2024-03-23T01:32:54;6.50;99.90
18948;DHT22;9607;51.600;7.558;2024-03-23T01:35:21;6.50;99.90
18948;DHT22;9607;51.600;7.558;2024-03-23T01:37:46;6.50;99.90
18948;DHT22;9607;51.600;7.558;2024-03-23T01:40:13;6.50;99.90
18948;DHT22;9607;51.600;7.558;2024-03-23T01:42:39;6.60;99.90
18948;DHT22;9607;51.600;7.558;2024-03-23T01:45:09;6.50;99.90
18948;DHT22;9607;51.600;7.558;2024-03-23T01:47:35;6.60;99.90
18948;DHT22;9607;51.600;7.558;2024-03-23T01:50:02;6.60;99.90
18948;DHT22;9607;51.600;7.558;2024-03-23T01:52:28;6.50;99.90
18948;DHT22;9607;51.600;7.558;2024-03-23T01:54:56;6.60;99.90
18948;DHT22;9607;51.600;7.558;2024-03-23T01:57:21;6.60;99.90
18948;DHT22;9607;51.600;7.558;2024-03-23T01:59:48;6.60;99.90
18948;DHT22;9607;51.600;7.558;2024-03-23T02:02:16;6.60;99.90
18948;DHT22;9607;51.600;7.558;2024-03-23T02:04:45;6.60;99.90
18948;DHT22;9607;51.600;7.558;2024-03-23T02:07:11;6.60;99.90
18948;DHT22;9607;51.600;7.558;2024-03-23T02:09:38;6.60;99.90
18948;DHT22;9607;51.600;7.558;2024-03-23T02:12:05;6.60;99.90
18948;DHT22;9607;51.600;7.558;2024-03-23T02:14:32;6.60;99.90
18948;DHT22;9607;51.600;7.558;2024-03-23T02:16:58;6.60;99.90
18948;DHT22;9607;51.600;7.558;2024-03-23T02:19:26;6.50;99.90
18948;DHT22;9607;51.600;7.558;2024-03-23T02:21:52;6.50;99.90
18948;DHT22;9607;51.600;7.558;2024-03-23T02:24:20;6.50;99.90
18948;DHT22;9607;51.600;7.558;2024-03-23T02:26:46;6.50;99.90
18948;DHT22;9607;51.600;7.558;2024-03-23T02:29:14;6.50;99.90
18948;DHT22;9607;51.600;7.558;2024-03-23T02:31:40;6.40;99.90
18948;DHT22;9607;51.600;7.558;2024-03-23T02:34:06;6.40;99.90
18948;DHT22;9607;51.600;7.558;2024-03-23T02:36:32;6.40;99.90
18948;DHT22;9607;51.600;7.558;2024-03-23T02:39:00;6.30;99.90
18948;DHT22;9607;51.600;7.558;2024-03-23T02:41:27;6.30;99.90
18948;DHT22;9607;51.600;7.558;2024-03-23T02:43:54;6.30;99.90
18948;DHT22;9607;51.600;7.558;2024-03-23T02:46:19;6.30;99.90
18948;DHT22;9607;51.600;7.558;2024-03-23T02:48:48;6.30;99.90
18948;DHT22;9607;51.600;7.558;2024-03-23T02:51:14;6.30;99.90
18948;DHT22;9607;51.600;7.558;2024-03-23T02:53:41;6.30;99.90
18948;DHT22;9607;51.600;7.558;2024-03-23T02:56:07;6.20;99.90
18948;DHT22;9607;51.600;7.558;2024-03-23T02:58:36;6.20;99.90
18948;DHT22;9607;51.600;7.558;2024-03-23T03:01:02;6.20;99.90
18948;DHT22;9607;51.600;7.558;2024-03-23T03:03:28;6.10;99.90
18948;DHT22;9607;51.600;7.558;2024-03-23T03:05:57;6.10;99.90
18948;DHT22;9607;51.600;7.558;2024-03-23T03:08:24;6.10;99.90
18948;DHT22;9607;51.600;7.558;2024-03-23T03:10:51;6.10;99.90
18948;DHT22;9607;51.600;7.558;2024-03-23T03:13:18;6.10;99.90
18948;DHT22;9607;51.600;7.558;2024-03-23T03:15:46;6.10;99.90
18948;DHT22;9607;51.600;7.558;2024-03-23T03:18:13;6.10;99.90
18948;DHT22;9607;51.600;7.558;2024-03-23T03:20:39;6.10;99.90
18948;DHT22;9607;51.600;7.558;2024-03-23T03:23:06;6.10;99.90
18948;DHT22;9607;51.600;7.558;2024-03-23T03:25:32;6.10;99.90
18948;DHT22;9607;51.600;7.558;2024-03-23T03:27:59;6.00;99.90
18948;DHT22;9607;51.600;7.558;2024-03-23T03:30:25;6.10;99.90
18948;DHT22;9607;51.600;7.558;2024-03-23T03:32:54;6.00;99.90
18948;DHT22;9607;51.600;7.558;2024-03-23T03:35:20;6.10;99.90
18948;DHT22;9607;51.600;7.558;2024-03-23T03:37:48;6.10;99.90
18948;DHT22;9607;51.600;7.558;2024-03-23T03:40:14;6.20;99.90
18948;DHT22;9607;51.600;7.558;2024-03-23T03:42:41;6.20;99.90
18948;DHT22;9607;51.600;7.558;2024-03-23T03:45:07;6.20;99.90
18948;DHT22;9607;51.600;7.558;2024-03-23T03:47:34;6.10;99.90
18948;DHT22;9607;51.600;7.558;2024-03-23T03:50:02;6.10;99.90
18948;DHT22;9607;51.600;7.558;2024-03-23T03:52:29;6.10;99.90
18948;DHT22;9607;51.600;7.558;2024-03-23T03:55:00;6.20;99.90
18948;DHT22;9607;51.600;7.558;2024-03-23T03:57:27;6.10;99.90
18948;DHT22;9607;51.600;7.558;2024-03-23T03:59:53;6.10;99.90
18948;DHT22;9607;51.600;7.558;2024-03-23T04:02:20;6.10;99.90
18948;DHT22;9607;51.600;7.558;2024-03-23T04:04:46;6.10;99.90
18948;DHT22;9607;51.600;7.558;2024-03-23T04:07:14;6.20;99.90
18948;DHT22;9607;51.600;7.558;2024-03-23T04:09:40;6.20;99.90
18948;DHT22;9607;51.600;7.558;2024-03-23T04:12:07;6.20;99.90
18948;DHT22;9607;51.600;7.558;2024-03-23T04:14:33;6.20;99.90
18948;DHT22;9607;51.600;7.558;2024-03-23T04:17:00;6.20;99.90
18948;DHT22;9607;51.600;7.558;2024-03-23T04:19:26;6.10;99.90
18948;DHT22;9607;51.600;7.558;2024-03-23T04:21:52;6.10;99.90
18948;DHT22;9607;51.600;7.558;2024-03-23T04:24:20;6.00;99.90
18948;DHT22;9607;51.600;7.558;2024-03-23T04:26:48;6.00;99.90
18948;DHT22;9607;51.600;7.558;2024-03-23T04:29:13;6.10;99.90
18948;DHT22;9607;51.600;7.558;2024-03-23T04:31:40;6.00;99.90
18948;DHT22;9607;51.600;7.558;2024-03-23T04:34:07;6.10;99.90
18948;DHT22;9607;51.600;7.558;2024-03-23T04:36:34;6.10;99.90
18948;DHT22;9607;51.600;7.558;2024-03-23T04:39:00;6.10;99.90
18948;DHT22;9607;51.600;7.558;2024-03-23T04:41:28;6.10;99.90
18948;DHT22;9607;51.600;7.558;2024-03-23T04:43:55;6.10;99.90
18948;DHT22;9607;51.600;7.558;2024-03-23T04:46:22;6.10;99.90
18948;DHT22;9607;51.600;7.558;2024-03-23T04:48:49;6.10;99.90
18948;DHT22;9607;51.600;7.558;2024-03-23T04:51:20;6.00;99.90
18948;DHT22;9607;51.600;7.558;2024-03-23T04:53:48;6.10;99.90
18948;DHT22;9607;51.600;7.558;2024-03-23T04:56:14;6.00;99.90
18948;DHT22;9607;51.600;7.558;2024-03-23T04:58:43;6.00;99.90
18948;DHT22;9607;51.600;7.558;2024-03-23T05:01:10;6.00;99.90
18948;DHT22;9607;51.600;7.558;2024-03-23T05:03:39;6.00;99.90
18948;DHT22;9607;51.600;7.558;2024-03-23T05:06:08;6.00;99.90
18948;DHT22;9607;51.600;7.558;2024-03-23T05:08:34;5.90;99.90
18948;DHT22;9607;51.600;7.558;2024-03-23T05:11:00;5.90;99.90
18948;DHT22;9607;51.600;7.558;2024-03-23T05:13:26;5.90;99.90
18948;DHT22;9607;51.600;7.558;2024-03-23T05:15:55;5.90;99.90
18948;DHT22;9607;51.600;7.558;2024-03-23T05:18:21;5.90;99.90
18948;DHT22;9607;51.600;7.558;2024-03-23T05:20:48;5.90;99.90
18948;DHT22;9607;51.600;7.558;2024-03-23T05:23:13;5.90;99.90
18948;DHT22;9607;51.600;7.558;2024-03-23T05:25:41;5.90;99.90
18948;DHT22;9607;51.600;7.558;2024-03-23T05:28:06;5.80;99.90
18948;DHT22;9607;51.600;7.558;2024-03-23T05:30:33;5.80;99.90
18948;DHT22;9607;51.600;7.558;2024-03-23T05:33:00;5.80;99.90
18948;DHT22;9607;51.600;7.558;2024-03-23T05:35:27;5.80;99.90
18948;DHT22;9607;51.600;7.558;2024-03-23T05:37:53;5.80;99.90
18948;DHT22;9607;51.600;7.558;2024-03-23T05:40:20;5.80;99.90
18948;DHT22;9607;51.600;7.558;2024-03-23T05:42:47;5.90;99.90
18948;DHT22;9607;51.600;7.558;2024-03-23T05:45:14;5.90;99.90
18948;DHT22;9607;51.600;7.558;2024-03-23T05:47:40;5.90;99.90
18948;DHT22;9607;51.600;7.558;2024-03-23T05:50:09;5.90;99.90
18948;DHT22;9607;51.600;7.558;2024-03-23T05:52:40;5.90;99.90
18948;DHT22;9607;51.600;7.558;2024-03-23T05:55:09;6.00;99.90
18948;DHT22;9607;51.600;7.558;2024-03-23T05:57:35;6.00;99.90
18948;DHT22;9607;51.600;7.558;2024-03-23T06:00:02;6.00;99.90
18948;DHT22;9607;51.600;7.558;2024-03-23T06:02:29;6.00;99.90
18948;DHT22;9607;51.600;7.558;2024-03-23T06:04:56;6.00;99.90
18948;DHT22;9607;51.600;7.558;2024-03-23T06:07:23;6.00;99.90
18948;DHT22;9607;51.600;7.558;2024-03-23T06:09:50;6.10;99.90
18948;DHT22;9607;51.600;7.558;2024-03-23T06:12:16;6.10;99.90
18948;DHT22;9607;51.600;7.558;2024-03-23T06:14:43;6.00;99.90
18948;DHT22;9607;51.600;7.558;2024-03-23T06:17:09;6.10;99.90
18948;DHT22;9607;51.600;7.558;2024-03-23T06:19:35;6.10;99.90
18948;DHT22;9607;51.600;7.558;2024-03-23T06:22:01;6.10;99.90
18948;DHT22;9607;51.600;7.558;2024-03-23T06:24:29;6.20;99.90
18948;DHT22;9607;51.600;7.558;2024-03-23T06:26:55;6.20;99.90
18948;DHT22;9607;51.600;7.558;2024-03-23T06:29:22;6.20;99.90
18948;DHT22;9607;51.600;7.558;2024-03-23T06:31:53;6.20;99.90
18948;DHT22;9607;51.600;7.558;2024-03-23T06:34:21;6.20;99.90
18948;DHT22;9607;51.600;7.558;2024-03-23T06:36:47;6.30;99.90
18948;DHT22;9607;51.600;7.558;2024-03-23T06:39:14;6.40;99.90
18948;DHT22;9607;51.600;7.558;2024-03-23T06:41:43;6.50;99.90
18948;DHT22;9607;51.600;7.558;2024-03-23T06:44:09;6.30;99.90
18948;DHT22;9607;51.600;7.558;2024-03-23T06:46:35;6.40;99.90
18948;DHT22;9607;51.600;7.558;2024-03-23T06:49:02;6.30;99.90
18948;DHT22;9607;51.600;7.558;2024-03-23T06:51:28;6.40;99.90
18948;DHT22;9607;51.600;7.558;2024-03-23T06:53:55;6.40;99.90
18948;DHT22;9607;51.600;7.558;2024-03-23T06:56:21;6.50;99.90
18948;DHT22;9607;51.600;7.558;2024-03-23T06:58:49;6.60;99.90
18948;DHT22;9607;51.600;7.558;2024-03-23T07:01:15;6.70;99.90
18948;DHT22;9607;51.600;7.558;2024-03-23T07:03:43;6.70;99.90
18948;DHT22;9607;51.600;7.558;2024-03-23T07:06:09;6.80;99.90
18948;DHT22;9607;51.600;7.558;2024-03-23T07:08:37;6.70;99.90
18948;DHT22;9607;51.600;7.558;2024-03-23T07:11:03;6.80;99.90
18948;DHT22;9607;51.600;7.558;2024-03-23T07:13:30;6.90;99.90
18948;DHT22;9607;51.600;7.558;2024-03-23T07:15:57;6.90;99.90
18948;DHT22;9607;51.600;7.558;2024-03-23T07:18:25;7.00;99.90
18948;DHT22;9607;51.600;7.558;2024-03-23T07:20:55;7.10;99.90
18948;DHT22;9607;51.600;7.558;2024-03-23T07:23:23;7.20;99.90
18948;DHT22;9607;51.600;7.558;2024-03-23T07:25:57;7.30;99.90
18948;DHT22;9607;51.600;7.558;2024-03-23T07:28:24;7.30;99.90
18948;DHT22;9607;51.600;7.558;2024-03-23T07:31:02;7.20;99.90
18948;DHT22;9607;51.600;7.558;2024-03-23T07:33:29;7.20;99.90
18948;DHT22;9607;51.600;7.558;2024-03-23T07:35:55;7.20;99.90
18948;DHT22;9607;51.600;7.558;2024-03-23T07:38:22;7.10;99.90
18948;DHT22;9607;51.600;7.558;2024-03-23T07:40:48;7.10;99.90
18948;DHT22;9607;51.600;7.558;2024-03-23T07:43:15;7.10;99.90
18948;DHT22;9607;51.600;7.558;2024-03-23T07:45:41;7.10;99.90
18948;DHT22;9607;51.600;7.558;2024-03-23T07:48:09;7.10;99.90
18948;DHT22;9607;51.600;7.558;2024-03-23T07:50:35;7.20;99.90
18948;DHT22;9607;51.600;7.558;2024-03-23T07:53:03;7.20;99.90
18948;DHT22;9607;51.600;7.558;2024-03-23T07:55:29;7.20;99.90
18948;DHT22;9607;51.600;7.558;2024-03-23T07:57:56;7.30;99.90
18948;DHT22;9607;51.600;7.558;2024-03-23T08:00:23;7.40;99.90
18948;DHT22;9607;51.600;7.558;2024-03-23T08:02:51;7.40;99.90
18948;DHT22;9607;51.600;7.558;2024-03-23T08:05:19;7.40;99.90
18948;DHT22;9607;51.600;7.558;2024-03-23T08:07:45;7.40;99.90
18948;DHT22;9607;51.600;7.558;2024-03-23T08:10:11;7.40;99.90
18948;DHT22;9607;51.600;7.558;2024-03-23T08:12:38;7.50;99.90
18948;DHT22;9607;51.600;7.558;2024-03-23T08:15:06;7.60;99.90
18948;DHT22;9607;51.600;7.558;2024-03-23T08:17:32;7.70;99.90
18948;DHT22;9607;51.600;7.558;2024-03-23T08:19:59;7.90;99.90
18948;DHT22;9607;51.600;7.558;2024-03-23T08:22:26;8.00;99.90
18948;DHT22;9607;51.600;7.558;2024-03-23T08:24:53;8.10;99.90
18948;DHT22;9607;51.600;7.558;2024-03-23T08:27:19;8.30;99.90
18948;DHT22;9607;51.600;7.558;2024-03-23T08:29:45;8.40;99.90
18948;DHT22;9607;51.600;7.558;2024-03-23T08:32:12;8.60;99.90
18948;DHT22;9607;51.600;7.558;2024-03-23T08:34:42;8.70;99.90
18948;DHT22;9607;51.600;7.558;2024-03-23T08:37:08;8.80;99.90
18948;DHT22;9607;51.600;7.558;2024-03-23T08:39:36;8.80;99.90
18948;DHT22;9607;51.600;7.558;2024-03-23T08:42:02;8.70;99.90
18948;DHT22;9607;51.600;7.558;2024-03-23T08:44:29;8.80;99.90
18948;DHT22;9607;51.600;7.558;2024-03-23T08:46:56;8.90;99.90
18948;DHT22;9607;51.600;7.558;2024-03-23T08:49:22;8.90;99.90
18948;DHT22;9607;51.600;7.558;2024-03-23T08:51:48;8.80;99.90
18948;DHT22;9607;51.600;7.558;2024-03-23T08:54:15;8.90;99.90
18948;DHT22;9607;51.600;7.558;2024-03-23T08:56:42;8.90;99.90
18948;DHT22;9607;51.600;7.558;2024-03-23T08:59:09;9.00;99.90
18948;DHT22;9607;51.600;7.558;2024-03-23T09:01:35;8.90;99.90
18948;DHT22;9607;51.600;7.558;2024-03-23T09:04:02;9.00;99.90
18948;DHT22;9607;51.600;7.558;2024-03-23T09:06:27;9.00;99.90
18948;DHT22;9607;51.600;7.558;2024-03-23T09:08:54;8.90;99.90
18948;DHT22;9607;51.600;7.558;2024-03-23T09:11:20;8.90;99.90
18948;DHT22;9607;51.600;7.558;2024-03-23T09:13:48;8.80;99.90
18948;DHT22;9607;51.600;7.558;2024-03-23T09:16:15;8.90;99.90
18948;DHT22;9607;51.600;7.558;2024-03-23T09:18:41;9.00;99.90
18948;DHT22;9607;51.600;7.558;2024-03-23T09:21:11;9.10;99.90
18948;DHT22;9607;51.600;7.558;2024-03-23T09:23:38;9.10;99.90
18948;DHT22;9607;51.600;7.558;2024-03-23T09:26:05;9.10;99.90
18948;DHT22;9607;51.600;7.558;2024-03-23T09:28:32;9.10;99.90
18948;DHT22;9607;51.600;7.558;2024-03-23T09:31:03;9.10;99.90
18948;DHT22;9607;51.600;7.558;2024-03-23T09:33:31;9.10;99.90
18948;DHT22;9607;51.600;7.558;2024-03-23T09:35:57;9.10;99.90
18948;DHT22;9607;51.600;7.558;2024-03-23T09:38:24;8.90;99.90
18948;DHT22;9607;51.600;7.558;2024-03-23T09:40:52;8.90;99.90
18948;DHT22;9607;51.600;7.558;2024-03-23T09:43:20;8.90;99.90
18948;DHT22;9607;51.600;7.558;2024-03-23T09:45:46;9.10;99.90
18948;DHT22;9607;51.600;7.558;2024-03-23T09:48:14;9.30;99.90
18948;DHT22;9607;51.600;7.558;2024-03-23T09:50:42;9.40;99.90
18948;DHT22;9607;51.600;7.558;2024-03-23T09:53:11;9.40;99.90
18948;DHT22;9607;51.600;7.558;2024-03-23T09:55:38;9.20;99.90
18948;DHT22;9607;51.600;7.558;2024-03-23T09:58:05;9.00;99.90
18948;DHT22;9607;51.600;7.558;2024-03-23T10:00:32;8.50;99.90
18948;DHT22;9607;51.600;7.558;2024-03-23T10:02:59;8.10;99.90
18948;DHT22;9607;51.600;7.558;2024-03-23T10:05:29;7.80;99.90
18948;DHT22;9607;51.600;7.558;2024-03-23T10:07:57;7.60;99.90
18948;DHT22;9607;51.600;7.558;2024-03-23T10:10:25;7.60;99.90
18948;DHT22;9607;51.600;7.558;2024-03-23T10:12:52;7.60;99.90
18948;DHT22;9607;51.600;7.558;2024-03-23T10:15:21;7.70;99.90
18948;DHT22;9607;51.600;7.558;2024-03-23T10:17:48;7.70;99.90
18948;DHT22;9607;51.600;7.558;2024-03-23T10:20:19;7.90;99.90
18948;DHT22;9607;51.600;7.558;2024-03-23T10:22:49;8.10;99.90
18948;DHT22;9607;51.600;7.558;2024-03-23T10:25:15;8.10;99.90
18948;DHT22;9607;51.600;7.558;2024-03-23T10:27:43;8.10;99.90
18948;DHT22;9607;51.600;7.558;2024-03-23T10:30:10;8.00;99.90
18948;DHT22;9607;51.600;7.558;2024-03-23T10:32:37;8.10;99.90
18948;DHT22;9607;51.600;7.558;2024-03-23T10:35:19;8.20;99.90
18948;DHT22;9607;51.600;7.558;2024-03-23T10:37:49;8.40;99.90
18948;DHT22;9607;51.600;7.558;2024-03-23T10:40:15;8.50;99.90
18948;DHT22;9607;51.600;7.558;2024-03-23T10:42:44;8.60;99.90
18948;DHT22;9607;51.600;7.558;2024-03-23T10:45:10;8.80;99.90
18948;DHT22;9607;51.600;7.558;2024-03-23T10:47:38;8.90;99.90
18948;DHT22;9607;51.600;7.558;2024-03-23T10:50:04;8.90;99.90
18948;DHT22;9607;51.600;7.558;2024-03-23T10:52:32;8.90;99.90
18948;DHT22;9607;51.600;7.558;2024-03-23T10:55:02;8.90;99.90
18948;DHT22;9607;51.600;7.558;2024-03-23T10:57:37;9.00;99.90
18948;DHT22;9607;51.600;7.558;2024-03-23T11:00:07;9.00;99.90
18948;DHT22;9607;51.600;7.558;2024-03-23T11:02:36;9.00;99.90
18948;DHT22;9607;51.600;7.558;2024-03-23T11:05:02;8.90;99.90
18948;DHT22;9607;51.600;7.558;2024-03-23T11:07:50;9.00;99.90
18948;DHT22;9607;51.600;7.558;2024-03-23T11:10:27;9.00;99.90
18948;DHT22;9607;51.600;7.558;2024-03-23T11:12:55;9.10;99.90
18948;DHT22;9607;51.600;7.558;2024-03-23T11:15:20;9.10;99.90
18948;DHT22;9607;51.600;7.558;2024-03-23T11:18:04;9.20;99.90
18948;DHT22;9607;51.600;7.558;2024-03-23T11:20:33;9.30;99.90
18948;DHT22;9607;51.600;7.558;2024-03-23T11:23:00;9.50;99.90
18948;DHT22;9607;51.600;7.558;2024-03-23T11:25:28;9.70;99.90
18948;DHT22;9607;51.600;7.558;2024-03-23T11:27:57;9.90;99.90
18948;DHT22;9607;51.600;7.558;2024-03-23T11:30:24;9.90;99.90
18948;DHT22;9607;51.600;7.558;2024-03-23T11:32:52;9.80;99.90
18948;DHT22;9607;51.600;7.558;2024-03-23T11:35:26;9.50;99.90
18948;DHT22;9607;51.600;7.558;2024-03-23T11:38:04;8.80;99.90
18948;DHT22;9607;51.600;7.558;2024-03-23T11:40:32;7.90;99.90
18948;DHT22;9607;51.600;7.558;2024-03-23T11:43:00;7.00;99.90
18948;DHT22;9607;51.600;7.558;2024-03-23T11:45:26;6.30;99.90
18948;DHT22;9607;51.600;7.558;2024-03-23T11:48:05;5.90;99.90
18948;DHT22;9607;51.600;7.558;2024-03-23T11:50:32;5.70;99.90
18948;DHT22;9607;51.600;7.558;2024-03-23T11:53:15;5.60;99.90
18948;DHT22;9607;51.600;7.558;2024-03-23T11:55:48;5.50;99.90
18948;DHT22;9607;51.600;7.558;2024-03-23T11:58:16;5.50;99.90
18948;DHT22;9607;51.600;7.558;2024-03-23T12:00:43;5.60;99.90
18948;DHT22;9607;51.600;7.558;2024-03-23T12:03:16;5.70;99.90
18948;DHT22;9607;51.600;7.558;2024-03-23T12:05:48;5.80;99.90
18948;DHT22;9607;51.600;7.558;2024-03-23T12:08:20;6.10;99.90
18948;DHT22;9607;51.600;7.558;2024-03-23T12:10:49;6.30;99.90
18948;DHT22;9607;51.600;7.558;2024-03-23T12:13:18;6.60;99.90
18948;DHT22;9607;51.600;7.558;2024-03-23T12:15:45;6.90;99.90
18948;DHT22;9607;51.600;7.558;2024-03-23T12:18:14;7.20;99.90
18948;DHT22;9607;51.600;7.558;2024-03-23T12:20:40;7.50;99.90
18948;DHT22;9607;51.600;7.558;2024-03-23T12:23:11;8.00;99.90
18948;DHT22;9607;51.600;7.558;2024-03-23T12:25:37;8.90;99.90
18948;DHT22;9607;51.600;7.558;2024-03-23T12:28:06;9.90;99.90
18948;DHT22;9607;51.600;7.558;2024-03-23T12:30:33;10.60;99.90
18948;DHT22;9607;51.600;7.558;2024-03-23T12:33:00;11.30;99.90
18948;DHT22;9607;51.600;7.558;2024-03-23T12:35:26;11.70;99.90
18948;DHT22;9607;51.600;7.558;2024-03-23T12:37:53;12.00;99.90
18948;DHT22;9607;51.600;7.558;2024-03-23T12:40:19;12.00;99.90
18948;DHT22;9607;51.600;7.558;2024-03-23T12:42:47;11.90;99.90
18948;DHT22;9607;51.600;7.558;2024-03-23T12:45:15;11.70;99.90
18948;DHT22;9607;51.600;7.558;2024-03-23T12:47:42;11.90;99.90
18948;DHT22;9607;51.600;7.558;2024-03-23T12:50:08;11.80;99.90
18948;DHT22;9607;51.600;7.558;2024-03-23T12:52:35;11.70;99.90
18948;DHT22;9607;51.600;7.558;2024-03-23T12:55:02;11.20;99.90
18948;DHT22;9607;51.600;7.558;2024-03-23T12:57:31;10.60;99.90
18948;DHT22;9607;51.600;7.558;2024-03-23T12:59:57;9.80;99.90
18948;DHT22;9607;51.600;7.558;2024-03-23T13:02:26;9.00;99.90
18948;DHT22;9607;51.600;7.558;2024-03-23T13:04:52;8.50;99.90
18948;DHT22;9607;51.600;7.558;2024-03-23T13:07:20;8.30;99.90
18948;DHT22;9607;51.600;7.558;2024-03-23T13:09:47;8.30;99.90
18948;DHT22;9607;51.600;7.558;2024-03-23T13:12:14;8.60;99.90
18948;DHT22;9607;51.600;7.558;2024-03-23T13:14:40;8.90;99.90
18948;DHT22;9607;51.600;7.558;2024-03-23T13:17:07;9.40;99.90
18948;DHT22;9607;51.600;7.558;2024-03-23T13:19:35;9.70;99.90
18948;DHT22;9607;51.600;7.558;2024-03-23T13:22:03;9.60;99.90
18948;DHT22;9607;51.600;7.558;2024-03-23T13:24:29;9.50;99.90
18948;DHT22;9607;51.600;7.558;2024-03-23T13:26:57;9.30;99.90
18948;DHT22;9607;51.600;7.558;2024-03-23T13:29:24;9.10;99.90
18948;DHT22;9607;51.600;7.558;2024-03-23T13:31:52;9.10;99.90
18948;DHT22;9607;51.600;7.558;2024-03-23T13:34:18;9.10;99.90
18948;DHT22;9607;51.600;7.558;2024-03-23T13:36:47;9.00;99.90
18948;DHT22;9607;51.600;7.558;2024-03-23T13:39:14;9.00;99.90
18948;DHT22;9607;51.600;7.558;2024-03-23T13:41:42;8.80;99.90
18948;DHT22;9607;51.600;7.558;2024-03-23T13:44:09;8.60;99.90
18948;DHT22;9607;51.600;7.558;2024-03-23T13:46:37;8.40;99.90
18948;DHT22;9607;51.600;7.558;2024-03-23T13:49:03;8.10;99.90
18948;DHT22;9607;51.600;7.558;2024-03-23T13:51:30;7.70;99.90
18948;DHT22;9607;51.600;7.558;2024-03-23T13:53:57;7.40;99.90
18948;DHT22;9607;51.600;7.558;2024-03-23T13:56:26;7.10;99.90
18948;DHT22;9607;51.600;7.558;2024-03-23T13:58:54;7.00;99.90
18948;DHT22;9607;51.600;7.558;2024-03-23T14:01:21;6.90;99.90
18948;DHT22;9607;51.600;7.558;2024-03-23T14:03:47;7.10;99.90
18948;DHT22;9607;51.600;7.558;2024-03-23T14:06:15;7.50;99.90
18948;DHT22;9607;51.600;7.558;2024-03-23T14:08:40;7.90;99.90
18948;DHT22;9607;51.600;7.558;2024-03-23T14:11:10;8.00;99.90
18948;DHT22;9607;51.600;7.558;2024-03-23T14:13:36;8.30;99.90
18948;DHT22;9607;51.600;7.558;2024-03-23T14:16:03;8.40;99.90
18948;DHT22;9607;51.600;7.558;2024-03-23T14:18:29;8.80;99.90
18948;DHT22;9607;51.600;7.558;2024-03-23T14:20:57;9.10;99.90
18948;DHT22;9607;51.600;7.558;2024-03-23T14:23:24;9.20;99.90
18948;DHT22;9607;51.600;7.558;2024-03-23T14:25:53;9.00;99.90
18948;DHT22;9607;51.600;7.558;2024-03-23T14:28:21;8.80;99.90
18948;DHT22;9607;51.600;7.558;2024-03-23T14:30:48;8.60;99.90
18948;DHT22;9607;51.600;7.558;2024-03-23T14:33:15;8.70;99.90
18948;DHT22;9607;51.600;7.558;2024-03-23T14:35:42;9.10;99.90
18948;DHT22;9607;51.600;7.558;2024-03-23T14:38:11;9.70;99.90
18948;DHT22;9607;51.600;7.558;2024-03-23T14:40:37;10.10;99.90
18948;DHT22;9607;51.600;7.558;2024-03-23T14:43:04;10.00;99.90
18948;DHT22;9607;51.600;7.558;2024-03-23T14:45:32;9.90;99.90
18948;DHT22;9607;51.600;7.558;2024-03-23T14:47:58;9.70;99.90
18948;DHT22;9607;51.600;7.558;2024-03-23T14:50:26;9.60;99.90
18948;DHT22;9607;51.600;7.558;2024-03-23T14:52:52;9.80;99.90
18948;DHT22;9607;51.600;7.558;2024-03-23T14:55:19;10.10;99.90
18948;DHT22;9607;51.600;7.558;2024-03-23T14:57:45;10.40;99.90
18948;DHT22;9607;51.600;7.558;2024-03-23T15:00:12;10.50;99.90
18948;DHT22;9607;51.600;7.558;2024-03-23T15:02:40;10.90;99.90
18948;DHT22;9607;51.600;7.558;2024-03-23T15:05:07;11.50;99.90
18948;DHT22;9607;51.600;7.558;2024-03-23T15:07:35;12.00;99.90
18948;DHT22;9607;51.600;7.558;2024-03-23T15:10:02;12.50;99.90
18948;DHT22;9607;51.600;7.558;2024-03-23T15:12:30;12.90;99.90
18948;DHT22;9607;51.600;7.558;2024-03-23T15:14:59;12.60;99.90
18948;DHT22;9607;51.600;7.558;2024-03-23T15:17:25;12.50;99.90
18948;DHT22;9607;51.600;7.558;2024-03-23T15:19:53;12.40;99.90
18948;DHT22;9607;51.600;7.558;2024-03-23T15:22:19;12.20;99.90
18948;DHT22;9607;51.600;7.558;2024-03-23T15:24:46;11.80;99.90
18948;DHT22;9607;51.600;7.558;2024-03-23T15:27:12;11.40;99.90
18948;DHT22;9607;51.600;7.558;2024-03-23T15:29:39;11.00;99.90
18948;DHT22;9607;51.600;7.558;2024-03-23T15:32:06;10.80;99.90
18948;DHT22;9607;51.600;7.558;2024-03-23T15:34:33;10.90;99.90
18948;DHT22;9607;51.600;7.558;2024-03-23T15:37:00;11.30;99.90
18948;DHT22;9607;51.600;7.558;2024-03-23T15:39:27;12.00;99.90
18948;DHT22;9607;51.600;7.558;2024-03-23T15:41:54;12.40;99.90
18948;DHT22;9607;51.600;7.558;2024-03-23T15:44:21;12.80;99.90
18948;DHT22;9607;51.600;7.558;2024-03-23T15:46:46;12.80;99.90
18948;DHT22;9607;51.600;7.558;2024-03-23T15:49:13;12.40;99.90
18948;DHT22;9607;51.600;7.558;2024-03-23T15:51:39;11.70;99.90
18948;DHT22;9607;51.600;7.558;2024-03-23T15:54:10;11.20;99.90
18948;DHT22;9607;51.600;7.558;2024-03-23T15:56:36;10.90;99.90
18948;DHT22;9607;51.600;7.558;2024-03-23T15:59:03;11.00;99.90
18948;DHT22;9607;51.600;7.558;2024-03-23T16:01:31;11.30;99.90
18948;DHT22;9607;51.600;7.558;2024-03-23T16:03:59;11.70;99.90
18948;DHT22;9607;51.600;7.558;2024-03-23T16:06:25;12.40;99.90
18948;DHT22;9607;51.600;7.558;2024-03-23T16:08:51;12.80;99.90
18948;DHT22;9607;51.600;7.558;2024-03-23T16:11:19;13.40;99.90
18948;DHT22;9607;51.600;7.558;2024-03-23T16:13:46;13.80;99.90
18948;DHT22;9607;51.600;7.558;2024-03-23T16:16:12;13.60;99.90
18948;DHT22;9607;51.600;7.558;2024-03-23T16:18:39;13.30;99.90
18948;DHT22;9607;51.600;7.558;2024-03-23T16:21:06;13.10;99.90
18948;DHT22;9607;51.600;7.558;2024-03-23T16:23:33;13.10;99.90
18948;DHT22;9607;51.600;7.558;2024-03-23T16:26:00;13.20;99.90
18948;DHT22;9607;51.600;7.558;2024-03-23T16:28:32;13.10;99.90
18948;DHT22;9607;51.600;7.558;2024-03-23T16:30:58;12.80;99.90
18948;DHT22;9607;51.600;7.558;2024-03-23T16:33:27;13.10;99.90
18948;DHT22;9607;51.600;7.558;2024-03-23T16:35:57;13.80;99.90
18948;DHT22;9607;51.600;7.558;2024-03-23T16:38:24;14.50;99.90
18948;DHT22;9607;51.600;7.558;2024-03-23T16:40:57;14.70;99.90
18948;DHT22;9607;51.600;7.558;2024-03-23T16:43:24;14.10;99.90
18948;DHT22;9607;51.600;7.558;2024-03-23T16:45:57;14.10;99.90
18948;DHT22;9607;51.600;7.558;2024-03-23T16:48:24;13.70;99.90
18948;DHT22;9607;51.600;7.558;2024-03-23T16:50:50;13.40;99.90
18948;DHT22;9607;51.600;7.558;2024-03-23T16:53:18;13.20;99.90
18948;DHT22;9607;51.600;7.558;2024-03-23T16:55:44;12.60;99.90